createdAt,value
2022-12-14T00:01:32.639Z,88.96
2022-12-14T00:06:55.315Z,88.56
2022-12-14T00:12:07.059Z,89.32
2022-12-14T00:17:24.777Z,88.89
2022-12-14T00:22:30.986Z,89.17
2022-12-14T00:27:53.202Z,89.06
2022-12-14T00:38:40.030Z,88.98
2022-12-14T00:43:49.426Z,89.78
2022-12-14T00:48:55.709Z,89.81
2022-12-14T00:54:05.775Z,89.54
2022-12-14T00:59:30.322Z,89.53
2022-12-14T01:04:55.199Z,88.98
2022-12-14T01:10:03.330Z,89.42
2022-12-14T01:15:18.201Z,89.30
2022-12-14T01:20:33.096Z,88.69
2022-12-14T01:25:43.637Z,88.54
2022-12-14T01:31:16.298Z,88.58
2022-12-14T01:36:34.161Z,89.01
2022-12-14T01:41:49.981Z,89.14
2022-12-14T01:47:13.125Z,89.01
2022-12-14T01:52:36.286Z,88.64
2022-12-14T01:58:11.383Z,88.31
2022-12-14T02:03:35.336Z,88.33
2022-12-14T02:14:22.332Z,88.84
2022-12-14T02:19:35.240Z,89.06
2022-12-14T02:25:37.362Z,88.16
2022-12-14T02:31:05.187Z,88.36
2022-12-14T02:36:37.622Z,88.73
2022-12-14T02:42:06.646Z,88.58
2022-12-14T02:47:29.393Z,87.78
2022-12-14T02:52:47.778Z,88.60
2022-12-14T02:58:09.015Z,88.23
2022-12-14T03:03:19.314Z,87.67
2022-12-14T03:08:50.848Z,86.98
2022-12-14T03:14:05.945Z,87.75
2022-12-14T03:19:31.773Z,86.76
2022-12-14T03:24:51.989Z,87.04
2022-12-14T03:30:23.717Z,86.74
2022-12-14T03:35:57.888Z,86.53
2022-12-14T03:41:38.698Z,87.32
2022-12-14T03:46:58.095Z,87.87
2022-12-14T03:52:13.278Z,86.63
2022-12-14T03:57:32.175Z,87.93
2022-12-14T04:03:07.817Z,88.05
2022-12-14T04:08:34.383Z,87.06
2022-12-14T04:14:18.260Z,86.91
2022-12-14T04:19:29.642Z,86.93
2022-12-14T04:25:13.780Z,86.90
2022-12-14T04:30:24.541Z,87.37
2022-12-14T04:35:46.687Z,88.18
2022-12-14T04:41:04.573Z,87.46
2022-12-14T04:46:29.989Z,88.27
2022-12-14T04:51:53.861Z,88.41
2022-12-14T04:57:19.985Z,87.06
2022-12-14T05:02:44.576Z,87.18
2022-12-14T05:08:13.466Z,87.39
2022-12-14T05:13:27.114Z,87.83
2022-12-14T05:18:46.823Z,88.57
2022-12-14T05:24:01.953Z,87.54
2022-12-14T05:29:08.648Z,87.11
2022-12-14T05:34:35.011Z,87.79
2022-12-14T05:39:58.691Z,87.81
2022-12-14T05:45:12.635Z,87.55
2022-12-14T05:50:29.404Z,88.00
2022-12-14T05:55:59.571Z,88.13
2022-12-14T06:01:36.084Z,87.64
2022-12-14T06:06:55.498Z,87.42
2022-12-14T06:12:18.629Z,88.19
2022-12-14T06:18:02.897Z,87.06
2022-12-14T06:23:26.458Z,87.96
2022-12-14T06:28:49.611Z,87.34
2022-12-14T06:34:07.589Z,87.49
2022-12-14T06:44:41.316Z,87.29
2022-12-14T06:49:56.778Z,86.93
2022-12-14T06:55:09.400Z,86.29
2022-12-14T07:00:35.032Z,86.32
2022-12-14T07:05:58.417Z,86.68
2022-12-14T07:11:06.043Z,86.23
2022-12-14T07:16:18.895Z,87.36
2022-12-14T07:21:27.088Z,86.53
2022-12-14T07:26:50.146Z,87.01
2022-12-14T07:32:03.764Z,86.49
2022-12-14T07:37:24.476Z,86.06
2022-12-14T07:47:55.280Z,86.29
2022-12-14T07:53:12.721Z,86.96
2022-12-14T07:58:18.287Z,85.88
2022-12-14T08:03:29.506Z,86.84
2022-12-14T08:08:38.619Z,86.34
2022-12-14T08:13:59.474Z,86.03
2022-12-14T08:19:12.087Z,85.25
2022-12-14T08:24:20.420Z,85.07
2022-12-14T08:29:28.442Z,84.79
2022-12-14T08:34:48.345Z,85.02
2022-12-14T08:39:57.230Z,84.63
2022-12-14T08:45:05.514Z,84.10
2022-12-14T08:50:21.343Z,84.41
2022-12-14T08:55:38.677Z,84.51
2022-12-14T09:00:50.018Z,84.19
2022-12-14T09:05:58.311Z,84.60
2022-12-14T09:11:24.803Z,84.60
2022-12-14T09:16:49.871Z,84.46
2022-12-14T09:21:57.711Z,84.66
2022-12-14T09:27:12.683Z,84.39
2022-12-14T09:32:56.880Z,83.98
2022-12-14T09:38:16.167Z,84.09
2022-12-14T09:43:51.134Z,83.82
2022-12-14T09:48:59.920Z,83.42
2022-12-14T09:54:15.044Z,83.59
2022-12-14T09:59:33.216Z,83.62
2022-12-14T10:05:02.645Z,82.57
2022-12-14T10:10:24.598Z,82.69
2022-12-14T10:15:43.380Z,82.82
2022-12-14T10:20:57.089Z,82.73
2022-12-14T10:26:23.148Z,81.71
2022-12-14T10:31:36.072Z,81.89
2022-12-14T10:37:02.745Z,81.70
2022-12-14T10:42:18.635Z,81.10
2022-12-14T10:47:33.058Z,80.41
2022-12-14T10:52:51.825Z,81.27
2022-12-14T10:58:08.747Z,80.95
2022-12-14T11:03:22.349Z,80.18
2022-12-14T11:08:48.119Z,79.87
2022-12-14T11:13:56.514Z,80.69
2022-12-14T11:19:05.520Z,80.30
2022-12-14T11:24:30.292Z,80.18
2022-12-14T11:29:44.421Z,81.36
2022-12-14T11:35:01.346Z,81.02
2022-12-14T11:40:23.768Z,81.08
2022-12-14T11:45:36.970Z,81.52
2022-12-14T11:51:10.063Z,81.36
2022-12-14T11:56:22.355Z,80.57
2022-12-14T12:01:31.647Z,81.10
2022-12-14T12:06:47.123Z,80.66
2022-12-14T12:11:56.356Z,81.02
2022-12-14T12:17:19.579Z,80.55
2022-12-14T12:22:47.405Z,80.02
2022-12-14T12:28:05.020Z,80.14
2022-12-14T12:33:33.374Z,80.15
2022-12-14T12:38:53.400Z,80.52
2022-12-14T12:44:15.347Z,80.24
2022-12-14T12:49:27.773Z,80.78
2022-12-14T12:54:40.811Z,79.85
2022-12-14T13:00:00.053Z,80.40
2022-12-14T13:05:44.976Z,80.55
2022-12-14T13:11:17.252Z,80.75
2022-12-14T13:16:27.748Z,81.04
2022-12-14T13:21:43.367Z,80.82
2022-12-14T13:27:54.053Z,81.35
2022-12-14T13:33:38.461Z,80.87
2022-12-14T13:39:05.343Z,81.07
2022-12-14T13:44:49.326Z,81.71
2022-12-14T13:50:26.673Z,81.48
2022-12-14T13:55:52.480Z,81.85
2022-12-14T14:01:46.199Z,81.86
2022-12-14T14:06:57.868Z,81.47
2022-12-14T14:12:05.924Z,82.11
2022-12-14T14:17:16.075Z,82.10
2022-12-14T14:22:32.508Z,81.96
2022-12-14T14:27:44.918Z,82.45
2022-12-14T14:33:43.569Z,82.13
2022-12-14T14:38:44.651Z,82.09
2022-12-14T14:43:53.130Z,82.91
2022-12-14T14:49:07.306Z,82.31
2022-12-14T14:55:28.181Z,82.40
2022-12-14T15:00:25.185Z,82.73
2022-12-14T15:05:42.472Z,82.72
2022-12-14T15:10:58.758Z,83.37
2022-12-14T15:16:19.192Z,83.08
2022-12-14T15:21:32.085Z,83.42
2022-12-14T15:26:44.106Z,83.24
2022-12-14T15:32:07.130Z,83.22
2022-12-14T15:43:19.451Z,83.71
2022-12-14T15:48:30.314Z,83.39
2022-12-14T15:53:41.004Z,83.64
2022-12-14T15:58:49.028Z,84.19
2022-12-14T16:04:06.997Z,84.27
2022-12-14T16:09:38.349Z,84.39
2022-12-14T16:15:00.283Z,84.16
2022-12-14T16:20:22.460Z,84.24
2022-12-14T16:25:35.194Z,84.41
2022-12-14T16:37:22.768Z,85.49
2022-12-14T16:42:25.366Z,85.79
2022-12-14T16:48:12.711Z,85.95
2022-12-14T16:53:25.051Z,85.60
2022-12-14T16:58:30.597Z,86.20
2022-12-14T17:03:50.632Z,85.51
2022-12-14T17:09:09.834Z,85.90
2022-12-14T17:14:18.713Z,84.90
2022-12-14T17:19:36.816Z,85.68
2022-12-14T17:24:45.022Z,85.84
2022-12-14T17:29:54.680Z,86.28
2022-12-14T17:35:11.946Z,86.58
2022-12-14T17:40:17.285Z,85.88
2022-12-14T17:45:26.149Z,85.76
2022-12-14T17:50:53.016Z,85.43
2022-12-14T17:56:01.012Z,85.82
2022-12-14T18:06:40.295Z,86.13
2022-12-14T18:12:21.601Z,86.24
2022-12-14T18:17:33.221Z,86.60
2022-12-14T18:22:42.580Z,86.10
2022-12-14T18:27:52.812Z,86.72
2022-12-14T18:33:02.959Z,86.35
2022-12-14T18:38:17.611Z,87.25
2022-12-14T18:43:26.277Z,86.94
2022-12-14T18:48:33.842Z,87.31
2022-12-14T18:53:44.082Z,86.84
2022-12-14T18:58:58.552Z,86.43
2022-12-14T19:04:08.694Z,86.68
2022-12-14T19:09:25.687Z,87.09
2022-12-14T19:14:36.011Z,87.87
2022-12-14T19:19:59.629Z,87.96
2022-12-14T19:25:10.525Z,88.31
2022-12-14T19:30:23.800Z,88.45
2022-12-14T19:35:40.596Z,88.60
2022-12-14T19:41:02.897Z,89.39
2022-12-14T19:46:10.530Z,89.70
2022-12-14T19:51:23.308Z,90.47
2022-12-14T19:56:41.272Z,90.57
2022-12-14T20:01:57.606Z,90.70
2022-12-14T20:07:13.611Z,91.19
2022-12-14T20:12:25.529Z,90.93
2022-12-14T20:17:34.970Z,91.19
2022-12-14T20:22:42.987Z,91.64
2022-12-14T20:27:52.572Z,91.84
2022-12-14T20:33:02.444Z,91.72
2022-12-14T20:38:17.964Z,91.96
2022-12-14T20:43:26.428Z,92.42
2022-12-14T20:48:46.293Z,92.40
2022-12-14T20:53:56.653Z,92.77
2022-12-14T20:59:18.244Z,92.87
2022-12-14T21:04:39.641Z,92.83
2022-12-14T21:09:48.825Z,92.89
2022-12-14T21:14:58.225Z,93.09
2022-12-14T21:20:07.367Z,93.37
2022-12-14T21:25:17.359Z,93.46
2022-12-14T21:30:25.122Z,93.30
2022-12-14T21:35:35.019Z,93.12
2022-12-14T21:40:59.790Z,93.95
2022-12-14T21:46:10.033Z,93.94
2022-12-14T21:51:18.456Z,93.47
2022-12-14T21:56:40.551Z,93.56
2022-12-14T22:02:02.900Z,94.26
2022-12-14T22:07:09.246Z,94.39
2022-12-14T22:12:18.940Z,93.95
2022-12-14T22:17:42.949Z,94.19
2022-12-14T22:22:49.480Z,93.96
2022-12-14T22:27:58.030Z,93.88
2022-12-14T22:33:28.440Z,94.42
2022-12-14T22:39:00.098Z,94.56
2022-12-14T22:44:21.375Z,93.53
2022-12-14T22:49:28.274Z,95.02
2022-12-14T22:54:34.752Z,93.88
2022-12-14T23:05:34.895Z,94.08
2022-12-14T23:10:59.017Z,95.51
2022-12-14T23:16:27.176Z,94.28
2022-12-14T23:22:10.933Z,95.38
2022-12-14T23:27:32.841Z,95.69
2022-12-14T23:32:55.979Z,94.75
2022-12-14T23:38:24.355Z,95.32
2022-12-14T23:43:47.751Z,94.55
2022-12-14T23:49:15.574Z,96.02
2022-12-14T23:54:43.431Z,94.49
